sensor_id;sensor_type;location;lat;lon;timestamp;pressure;altitude;pressure_sealevel;temperature;humidity
72640;BME280;60683;51.730;8.762;2024-03-25T00:01:38;99285.28;;;4.47;100.00
72640;BME280;60683;51.730;8.762;2024-03-25T00:04:24;99274.84;;;4.46;100.00
72640;BME280;60683;51.730;8.762;2024-03-25T00:07:09;99272.78;;;4.48;100.00
72640;BME280;60683;51.730;8.762;2024-03-25T00:09:54;99274.84;;;4.46;100.00
72640;BME280;60683;51.730;8.762;2024-03-25T00:12:40;99269.31;;;4.47;100.00
72640;BME280;60683;51.730;8.762;2024-03-25T00:15:25;99279.38;;;4.45;100.00
72640;BME280;60683;51.730;8.762;2024-03-25T00:18:10;99279.19;;;4.40;100.00
72640;BME280;60683;51.730;8.762;2024-03-25T00:20:56;99283.69;;;4.40;100.00
72640;BME280;60683;51.730;8.762;2024-03-25T00:23:42;99292.28;;;4.42;100.00
72640;BME280;60683;51.730;8.762;2024-03-25T00:26:27;99293.31;;;4.41;100.00
72640;BME280;60683;51.730;8.762;2024-03-25T00:29:13;99293.91;;;4.43;100.00
72640;BME280;60683;51.730;8.762;2024-03-25T00:31:57;99291.84;;;4.45;100.00
72640;BME280;60683;51.730;8.762;2024-03-25T00:34:44;99307.19;;;4.49;100.00
72640;BME280;60683;51.730;8.762;2024-03-25T00:37:30;99296.16;;;4.46;100.00
72640;BME280;60683;51.730;8.762;2024-03-25T00:40:16;99299.41;;;4.48;100.00
72640;BME280;60683;51.730;8.762;2024-03-25T00:43:00;99301.47;;;4.46;100.00
72640;BME280;60683;51.730;8.762;2024-03-25T00:45:45;99301.69;;;4.44;100.00
72640;BME280;60683;51.730;8.762;2024-03-25T00:48:30;99299.22;;;4.43;100.00
72640;BME280;60683;51.730;8.762;2024-03-25T00:51:16;99299.44;;;4.41;100.00
72640;BME280;60683;51.730;8.762;2024-03-25T00:54:02;99303.94;;;4.41;100.00
72640;BME280;60683;51.730;8.762;2024-03-25T00:56:47;99310.31;;;4.40;100.00
72640;BME280;60683;51.730;8.762;2024-03-25T00:59:32;99303.94;;;4.41;100.00
72640;BME280;60683;51.730;8.762;2024-03-25T01:02:17;99311.72;;;4.42;100.00
72640;BME280;60683;51.730;8.762;2024-03-25T01:05:03;99305.59;;;4.42;100.00
72640;BME280;60683;51.730;8.762;2024-03-25T01:07:49;99303.94;;;4.41;100.00
72640;BME280;60683;51.730;8.762;2024-03-25T01:10:35;99303.94;;;4.41;100.00
72640;BME280;60683;51.730;8.762;2024-03-25T01:13:21;99298.63;;;4.41;100.00
72640;BME280;60683;51.730;8.762;2024-03-25T01:16:06;99315.19;;;4.43;100.00
72640;BME280;60683;51.730;8.762;2024-03-25T01:18:51;99306.41;;;4.42;100.00
72640;BME280;60683;51.730;8.762;2024-03-25T01:21:36;99305.59;;;4.42;100.00
72640;BME280;60683;51.730;8.762;2024-03-25T01:24:21;99300.06;;;4.43;100.00
72640;BME280;60683;51.730;8.762;2024-03-25T01:27:07;99301.91;;;4.43;100.00
72640;BME280;60683;51.730;8.762;2024-03-25T01:29:53;99300.25;;;4.42;100.00
72640;BME280;60683;51.730;8.762;2024-03-25T01:32:37;99300.88;;;4.44;100.00
72640;BME280;60683;51.730;8.762;2024-03-25T01:35:23;99309.66;;;4.44;100.00
72640;BME280;60683;51.730;8.762;2024-03-25T01:38:08;99312.13;;;4.46;100.00
72640;BME280;60683;51.730;8.762;2024-03-25T01:40:53;99300.44;;;4.47;100.00
72640;BME280;60683;51.730;8.762;2024-03-25T01:43:39;99294.09;;;4.48;100.00
72640;BME280;60683;51.730;8.762;2024-03-25T01:46:24;99308.00;;;4.50;100.00
72640;BME280;60683;51.730;8.762;2024-03-25T01:49:12;99306.56;;;4.47;100.00
72640;BME280;60683;51.730;8.762;2024-03-25T01:51:58;99315.38;;;4.48;100.00
72640;BME280;60683;51.730;8.762;2024-03-25T01:54:43;99312.72;;;4.48;100.00
72640;BME280;60683;51.730;8.762;2024-03-25T01:57:28;99318.25;;;4.46;100.00
72640;BME280;60683;51.730;8.762;2024-03-25T02:00:15;99312.31;;;4.44;100.00
72640;BME280;60683;51.730;8.762;2024-03-25T02:03:03;99311.34;;;4.39;100.00
72640;BME280;60683;51.730;8.762;2024-03-25T02:05:50;99312.97;;;4.40;100.00
72640;BME280;60683;51.730;8.762;2024-03-25T02:08:36;99319.09;;;4.40;100.00
72640;BME280;60683;51.730;8.762;2024-03-25T02:11:20;99320.34;;;4.38;100.00
72640;BME280;60683;51.730;8.762;2024-03-25T02:14:07;99330.38;;;4.36;100.00
72640;BME280;60683;51.730;8.762;2024-03-25T02:16:53;99334.69;;;4.37;100.00
72640;BME280;60683;51.730;8.762;2024-03-25T02:19:39;99327.50;;;4.37;100.00
72640;BME280;60683;51.730;8.762;2024-03-25T02:22:24;99336.91;;;4.40;100.00
72640;BME280;60683;51.730;8.762;2024-03-25T02:25:10;99327.31;;;4.39;100.00
72640;BME280;60683;51.730;8.762;2024-03-25T02:27:56;99342.25;;;4.40;100.00
72640;BME280;60683;51.730;8.762;2024-03-25T02:30:41;99336.69;;;4.41;100.00
72640;BME280;60683;51.730;8.762;2024-03-25T02:33:26;99337.34;;;4.37;100.00
72640;BME280;60683;51.730;8.762;2024-03-25T02:36:11;99338.78;;;4.32;100.00
72640;BME280;60683;51.730;8.762;2024-03-25T02:38:56;99338.19;;;4.30;100.00
72640;BME280;60683;51.730;8.762;2024-03-25T02:41:40;99334.91;;;4.28;100.00
72640;BME280;60683;51.730;8.762;2024-03-25T02:44:28;99344.53;;;4.29;100.00
72640;BME280;60683;51.730;8.762;2024-03-25T02:47:12;99343.50;;;4.30;100.00
72640;BME280;60683;51.730;8.762;2024-03-25T02:49:57;99344.13;;;4.26;100.00
72640;BME280;60683;51.730;8.762;2024-03-25T02:52:41;99347.41;;;4.28;100.00
72640;BME280;60683;51.730;8.762;2024-03-25T02:55:27;99353.97;;;4.25;100.00
72640;BME280;60683;51.730;8.762;2024-03-25T02:58:12;99354.56;;;4.27;100.00
72640;BME280;60683;51.730;8.762;2024-03-25T03:00:58;99364.19;;;4.28;100.00
72640;BME280;60683;51.730;8.762;2024-03-25T03:03:43;99365.59;;;4.31;100.00
72640;BME280;60683;51.730;8.762;2024-03-25T03:06:28;99362.13;;;4.30;100.00
72640;BME280;60683;51.730;8.762;2024-03-25T03:09:13;99365.41;;;4.32;100.00
72640;BME280;60683;51.730;8.762;2024-03-25T03:11:58;99366.44;;;4.31;100.00
72640;BME280;60683;51.730;8.762;2024-03-25T03:14:43;99366.44;;;4.31;100.00
72640;BME280;60683;51.730;8.762;2024-03-25T03:17:29;99361.53;;;4.28;100.00
72640;BME280;60683;51.730;8.762;2024-03-25T03:20:14;99364.19;;;4.28;100.00
72640;BME280;60683;51.730;8.762;2024-03-25T03:22:59;99370.72;;;4.32;100.00
72640;BME280;60683;51.730;8.762;2024-03-25T03:25:44;99375.44;;;4.30;100.00
72640;BME280;60683;51.730;8.762;2024-03-25T03:28:30;99372.78;;;4.30;100.00
72640;BME280;60683;51.730;8.762;2024-03-25T03:31:15;99378.09;;;4.30;100.00
72640;BME280;60683;51.730;8.762;2024-03-25T03:34:01;99372.78;;;4.30;100.00
72640;BME280;60683;51.730;8.762;2024-03-25T03:36:46;99377.88;;;4.32;100.00
72640;BME280;60683;51.730;8.762;2024-03-25T03:39:31;99372.34;;;4.33;100.00
72640;BME280;60683;51.730;8.762;2024-03-25T03:42:16;99375.81;;;4.34;100.00
72640;BME280;60683;51.730;8.762;2024-03-25T03:45:01;99375.22;;;4.32;100.00
72640;BME280;60683;51.730;8.762;2024-03-25T03:47:46;99381.38;;;4.32;100.00
72640;BME280;60683;51.730;8.762;2024-03-25T03:50:32;99375.84;;;4.27;100.00
72640;BME280;60683;51.730;8.762;2024-03-25T03:53:18;99374.63;;;4.23;100.00
72640;BME280;60683;51.730;8.762;2024-03-25T03:56:04;99377.31;;;4.23;100.00
72640;BME280;60683;51.730;8.762;2024-03-25T03:58:49;99375.06;;;4.20;100.00
72640;BME280;60683;51.730;8.762;2024-03-25T04:01:34;99378.53;;;4.21;100.00
72640;BME280;60683;51.730;8.762;2024-03-25T04:04:19;99391.03;;;4.20;100.00
72640;BME280;60683;51.730;8.762;2024-03-25T04:07:05;99389.59;;;4.18;100.00
72640;BME280;60683;51.730;8.762;2024-03-25T04:09:50;99385.53;;;4.15;100.00
72640;BME280;60683;51.730;8.762;2024-03-25T04:12:35;99390.88;;;4.15;100.00
72640;BME280;60683;51.730;8.762;2024-03-25T04:15:20;99392.47;;;4.16;100.00
72640;BME280;60683;51.730;8.762;2024-03-25T04:18:06;99390.03;;;4.15;100.00
72640;BME280;60683;51.730;8.762;2024-03-25T04:20:51;99396.19;;;4.15;100.00
72640;BME280;60683;51.730;8.762;2024-03-25T04:23:37;99388.78;;;4.17;100.00
72640;BME280;60683;51.730;8.762;2024-03-25T04:26:23;99391.69;;;4.09;100.00
72640;BME280;60683;51.730;8.762;2024-03-25T04:29:09;99395.19;;;4.10;100.00
72640;BME280;60683;51.730;8.762;2024-03-25T04:31:53;99394.56;;;4.08;100.00
72640;BME280;60683;51.730;8.762;2024-03-25T04:34:39;99402.16;;;4.04;100.00
72640;BME280;60683;51.730;8.762;2024-03-25T04:37:23;99408.06;;;4.06;100.00
72640;BME280;60683;51.730;8.762;2024-03-25T04:40:11;99403.56;;;4.07;100.00
72640;BME280;60683;51.730;8.762;2024-03-25T04:42:56;99413.81;;;4.03;100.00
72640;BME280;60683;51.730;8.762;2024-03-25T04:45:40;99418.31;;;4.03;100.00
72640;BME280;60683;51.730;8.762;2024-03-25T04:48:25;99422.00;;;4.02;100.00
72640;BME280;60683;51.730;8.762;2024-03-25T04:51:09;99425.69;;;4.01;100.00
72640;BME280;60683;51.730;8.762;2024-03-25T04:53:53;99426.91;;;4.05;100.00
72640;BME280;60683;51.730;8.762;2024-03-25T04:56:39;99422.19;;;4.00;100.00
72640;BME280;60683;51.730;8.762;2024-03-25T04:59:23;99436.31;;;4.01;100.00
72640;BME280;60683;51.730;8.762;2024-03-25T05:02:08;99432.22;;;3.98;100.00
72640;BME280;60683;51.730;8.762;2024-03-25T05:04:52;99434.69;;;3.99;100.00
72640;BME280;60683;51.730;8.762;2024-03-25T05:07:37;99435.91;;;3.97;100.00
72640;BME280;60683;51.730;8.762;2024-03-25T05:10:21;99435.91;;;3.97;100.00
72640;BME280;60683;51.730;8.762;2024-03-25T05:13:07;99425.28;;;3.97;100.00
72640;BME280;60683;51.730;8.762;2024-03-25T05:15:52;99435.09;;;3.96;100.00
72640;BME280;60683;51.730;8.762;2024-03-25T05:18:36;99443.91;;;3.97;100.00
72640;BME280;60683;51.730;8.762;2024-03-25T05:21:20;99441.63;;;4.01;100.00
72640;BME280;60683;51.730;8.762;2024-03-25T05:24:05;99444.09;;;4.02;100.00
72640;BME280;60683;51.730;8.762;2024-03-25T05:26:49;99448.59;;;4.02;100.00
72640;BME280;60683;51.730;8.762;2024-03-25T05:29:35;99457.19;;;4.04;100.00
72640;BME280;60683;51.730;8.762;2024-03-25T05:32:20;99450.44;;;4.01;100.00
72640;BME280;60683;51.730;8.762;2024-03-25T05:35:05;99458.00;;;3.97;100.00
72640;BME280;60683;51.730;8.762;2024-03-25T05:37:49;99465.16;;;4.04;100.00
72640;BME280;60683;51.730;8.762;2024-03-25T05:40:34;99461.69;;;4.03;100.00
72640;BME280;60683;51.730;8.762;2024-03-25T05:43:18;99466.19;;;4.03;100.00
72640;BME280;60683;51.730;8.762;2024-03-25T05:46:04;99468.63;;;4.04;100.00
72640;BME280;60683;51.730;8.762;2024-03-25T05:48:48;99461.28;;;4.06;100.00
72640;BME280;60683;51.730;8.762;2024-03-25T05:51:33;99464.13;;;4.05;100.00
72640;BME280;60683;51.730;8.762;2024-03-25T05:54:18;99462.50;;;4.04;100.00
72640;BME280;60683;51.730;8.762;2024-03-25T05:57:03;99461.66;;;4.10;100.00
72640;BME280;60683;51.730;8.762;2024-03-25T05:59:48;99462.50;;;4.10;100.00
72640;BME280;60683;51.730;8.762;2024-03-25T06:02:34;99471.91;;;4.06;100.00
72640;BME280;60683;51.730;8.762;2024-03-25T06:05:18;99467.00;;;4.10;100.00
72640;BME280;60683;51.730;8.762;2024-03-25T06:08:04;99477.63;;;4.10;100.00
72640;BME280;60683;51.730;8.762;2024-03-25T06:10:48;99475.97;;;4.15;100.00
72640;BME280;60683;51.730;8.762;2024-03-25T06:13:33;99481.88;;;4.17;100.00
72640;BME280;60683;51.730;8.762;2024-03-25T06:16:17;99480.44;;;4.21;100.00
72640;BME280;60683;51.730;8.762;2024-03-25T06:19:03;99479.22;;;4.24;100.00
72640;BME280;60683;51.730;8.762;2024-03-25T06:21:47;99487.41;;;4.22;100.00
72640;BME280;60683;51.730;8.762;2024-03-25T06:24:32;99487.78;;;4.32;100.00
72640;BME280;60683;51.730;8.762;2024-03-25T06:27:16;99489.00;;;4.37;100.00
72640;BME280;60683;51.730;8.762;2024-03-25T06:30:01;99491.88;;;4.42;100.00
72640;BME280;60683;51.730;8.762;2024-03-25T06:33:00;99498.81;;;4.43;100.00
72640;BME280;60683;51.730;8.762;2024-03-25T06:36:05;99498.41;;;4.46;100.00
72640;BME280;60683;51.730;8.762;2024-03-25T06:38:50;99504.34;;;4.48;100.00
72640;BME280;60683;51.730;8.762;2024-03-25T06:41:34;99502.50;;;4.48;100.00
72640;BME280;60683;51.730;8.762;2024-03-25T06:44:18;99508.00;;;4.53;100.00
72640;BME280;60683;51.730;8.762;2024-03-25T06:47:03;99511.91;;;4.51;100.00
72640;BME280;60683;51.730;8.762;2024-03-25T06:49:47;99515.19;;;4.53;100.00
72640;BME280;60683;51.730;8.762;2024-03-25T06:52:33;99515.00;;;4.48;100.00
72640;BME280;60683;51.730;8.762;2024-03-25T06:55:18;99522.16;;;4.47;100.00
72640;BME280;60683;51.730;8.762;2024-03-25T06:58:03;99523.38;;;4.51;100.00
72640;BME280;60683;51.730;8.762;2024-03-25T07:00:48;99518.84;;;4.58;100.00
72640;BME280;60683;51.730;8.762;2024-03-25T07:03:33;99514.94;;;4.68;100.00
72640;BME280;60683;51.730;8.762;2024-03-25T07:06:18;99516.53;;;4.75;100.00
72640;BME280;60683;51.730;8.762;2024-03-25T07:09:05;99522.03;;;4.80;100.00
72640;BME280;60683;51.730;8.762;2024-03-25T07:11:49;99523.66;;;4.88;100.00
72640;BME280;60683;51.730;8.762;2024-03-25T07:14:33;99514.19;;;4.92;100.00
72640;BME280;60683;51.730;8.762;2024-03-25T07:17:18;99515.84;;;4.93;100.00
72640;BME280;60683;51.730;8.762;2024-03-25T07:20:03;99502.50;;;4.99;100.00
72640;BME280;60683;51.730;8.762;2024-03-25T07:22:47;99517.88;;;4.97;100.00
72640;BME280;60683;51.730;8.762;2024-03-25T07:25:33;99504.72;;;5.09;100.00
72640;BME280;60683;51.730;8.762;2024-03-25T07:28:18;99508.81;;;5.05;100.00
72640;BME280;60683;51.730;8.762;2024-03-25T07:31:03;99511.69;;;5.04;100.00
72640;BME280;60683;51.730;8.762;2024-03-25T07:33:47;99513.34;;;5.05;100.00
72640;BME280;60683;51.730;8.762;2024-03-25T07:36:32;99511.22;;;5.20;100.00
72640;BME280;60683;51.730;8.762;2024-03-25T07:39:16;99518.84;;;5.41;100.00
72640;BME280;60683;51.730;8.762;2024-03-25T07:42:01;99515.84;;;5.62;100.00
72640;BME280;60683;51.730;8.762;2024-03-25T07:44:46;99517.03;;;5.67;100.00
72640;BME280;60683;51.730;8.762;2024-03-25T07:47:30;99506.59;;;5.65;100.00
72640;BME280;60683;51.730;8.762;2024-03-25T07:50:15;99507.06;;;5.80;100.00
72640;BME280;60683;51.730;8.762;2024-03-25T07:52:59;99510.31;;;5.89;100.00
72640;BME280;60683;51.730;8.762;2024-03-25T07:55:44;99505.78;;;6.14;100.00
72640;BME280;60683;51.730;8.762;2024-03-25T07:58:30;99517.28;;;6.15;100.00
72640;BME280;60683;51.730;8.762;2024-03-25T08:01:14;99513.41;;;6.11;100.00
72640;BME280;60683;51.730;8.762;2024-03-25T08:03:59;99514.72;;;6.02;100.00
72640;BME280;60683;51.730;8.762;2024-03-25T08:06:43;99530.41;;;5.91;100.00
72640;BME280;60683;51.730;8.762;2024-03-25T08:09:28;99532.06;;;5.86;100.00
72640;BME280;60683;51.730;8.762;2024-03-25T08:12:12;99516.84;;;5.93;100.00
72640;BME280;60683;51.730;8.762;2024-03-25T08:14:58;99523.66;;;5.89;100.00
72640;BME280;60683;51.730;8.762;2024-03-25T08:17:43;99530.81;;;5.88;100.00
72640;BME280;60683;51.730;8.762;2024-03-25T08:20:27;99521.31;;;5.99;100.00
72640;BME280;60683;51.730;8.762;2024-03-25T08:23:11;99521.06;;;6.25;100.00
72640;BME280;60683;51.730;8.762;2024-03-25T08:25:56;99522.56;;;6.40;100.00
72640;BME280;60683;51.730;8.762;2024-03-25T08:28:40;99525.69;;;6.37;100.00
72640;BME280;60683;51.730;8.762;2024-03-25T08:31:26;99523.97;;;6.42;100.00
72640;BME280;60683;51.730;8.762;2024-03-25T08:34:10;99526.59;;;6.49;100.00
72640;BME280;60683;51.730;8.762;2024-03-25T08:36:55;99523.63;;;6.57;100.00
72640;BME280;60683;51.730;8.762;2024-03-25T08:39:39;99530.16;;;6.61;100.00
72640;BME280;60683;51.730;8.762;2024-03-25T08:42:23;99530.47;;;6.28;100.00
72640;BME280;60683;51.730;8.762;2024-03-25T08:45:08;99534.56;;;6.30;100.00
72640;BME280;60683;51.730;8.762;2024-03-25T08:47:54;99530.28;;;6.48;100.00
72640;BME280;60683;51.730;8.762;2024-03-25T08:50:38;99532.38;;;6.46;100.00
72640;BME280;60683;51.730;8.762;2024-03-25T08:53:22;99541.13;;;6.53;100.00
72640;BME280;60683;51.730;8.762;2024-03-25T08:56:07;99538.16;;;6.43;100.00
72640;BME280;60683;51.730;8.762;2024-03-25T08:58:51;99533.19;;;6.46;100.00
72640;BME280;60683;51.730;8.762;2024-03-25T09:01:35;99533.69;;;6.18;100.00
72640;BME280;60683;51.730;8.762;2024-03-25T09:04:21;99535.03;;;6.46;100.00
72640;BME280;60683;51.730;8.762;2024-03-25T09:07:06;99539.66;;;6.57;100.00
72640;BME280;60683;51.730;8.762;2024-03-25T09:09:51;99530.72;;;6.45;100.00
72640;BME280;60683;51.730;8.762;2024-03-25T09:12:54;99526.00;;;6.47;100.00
72640;BME280;60683;51.730;8.762;2024-03-25T09:15:38;99518.84;;;6.77;100.00
72640;BME280;60683;51.730;8.762;2024-03-25T09:18:22;99526.31;;;6.75;100.00
72640;BME280;60683;51.730;8.762;2024-03-25T09:21:09;99524.88;;;6.73;100.00
72640;BME280;60683;51.730;8.762;2024-03-25T09:23:53;99514.25;;;6.84;100.00
72640;BME280;60683;51.730;8.762;2024-03-25T09:26:37;99518.97;;;7.01;100.00
72640;BME280;60683;51.730;8.762;2024-03-25T09:29:22;99518.78;;;6.84;100.00
72640;BME280;60683;51.730;8.762;2024-03-25T09:32:06;99511.63;;;6.66;100.00
72640;BME280;60683;51.730;8.762;2024-03-25T09:34:51;99511.56;;;6.84;100.00
72640;BME280;60683;51.730;8.762;2024-03-25T09:37:37;99499.84;;;7.04;100.00
72640;BME280;60683;51.730;8.762;2024-03-25T09:40:21;99511.22;;;7.41;100.00
72640;BME280;60683;51.730;8.762;2024-03-25T09:43:10;99501.47;;;7.46;99.88
72640;BME280;60683;51.730;8.762;2024-03-25T09:45:57;99510.03;;;7.67;97.00
72640;BME280;60683;51.730;8.762;2024-03-25T09:48:42;99508.09;;;7.97;97.17
72640;BME280;60683;51.730;8.762;2024-03-25T09:51:26;99506.00;;;8.22;93.73
72640;BME280;60683;51.730;8.762;2024-03-25T09:54:12;99500.41;;;8.47;93.52
72640;BME280;60683;51.730;8.762;2024-03-25T09:56:58;99505.97;;;8.69;88.95
72640;BME280;60683;51.730;8.762;2024-03-25T09:59:43;99508.06;;;8.32;88.19
72640;BME280;60683;51.730;8.762;2024-03-25T10:02:28;99507.53;;;8.30;90.25
72640;BME280;60683;51.730;8.762;2024-03-25T10:05:14;99501.91;;;7.85;88.46
72640;BME280;60683;51.730;8.762;2024-03-25T10:07:58;99505.63;;;7.72;90.56
72640;BME280;60683;51.730;8.762;2024-03-25T10:10:44;99512.81;;;7.60;89.88
72640;BME280;60683;51.730;8.762;2024-03-25T10:13:28;99515.91;;;7.45;90.67
72640;BME280;60683;51.730;8.762;2024-03-25T10:16:13;99509.16;;;7.43;92.46
72640;BME280;60683;51.730;8.762;2024-03-25T10:18:58;99519.72;;;7.38;94.36
72640;BME280;60683;51.730;8.762;2024-03-25T10:21:42;99507.97;;;7.27;95.41
72640;BME280;60683;51.730;8.762;2024-03-25T10:24:27;99517.47;;;7.23;97.25
72640;BME280;60683;51.730;8.762;2024-03-25T10:27:22;99518.72;;;7.20;97.49
72640;BME280;60683;51.730;8.762;2024-03-25T10:30:07;99517.50;;;7.05;97.27
72640;BME280;60683;51.730;8.762;2024-03-25T10:32:59;99517.81;;;6.96;92.12
72640;BME280;60683;51.730;8.762;2024-03-25T10:35:45;99516.31;;;7.01;90.82
72640;BME280;60683;51.730;8.762;2024-03-25T10:38:34;99509.25;;;7.36;89.18
72640;BME280;60683;51.730;8.762;2024-03-25T10:41:20;99514.94;;;7.40;83.76
72640;BME280;60683;51.730;8.762;2024-03-25T10:44:06;99517.06;;;7.49;85.36
72640;BME280;60683;51.730;8.762;2024-03-25T10:46:54;99516.88;;;7.62;84.87
72640;BME280;60683;51.730;8.762;2024-03-25T10:49:45;99518.44;;;7.93;83.67
72640;BME280;60683;51.730;8.762;2024-03-25T10:52:32;99511.13;;;8.12;84.80
72640;BME280;60683;51.730;8.762;2024-03-25T10:55:17;99508.69;;;8.22;82.09
72640;BME280;60683;51.730;8.762;2024-03-25T10:58:03;99500.63;;;7.99;80.07
72640;BME280;60683;51.730;8.762;2024-03-25T11:00:51;99499.38;;;8.13;79.22
72640;BME280;60683;51.730;8.762;2024-03-25T11:03:37;99496.47;;;8.38;81.91
72640;BME280;60683;51.730;8.762;2024-03-25T11:06:21;99499.13;;;8.03;79.70
72640;BME280;60683;51.730;8.762;2024-03-25T11:09:06;99496.69;;;8.02;76.87
72640;BME280;60683;51.730;8.762;2024-03-25T11:11:51;99497.75;;;8.24;80.61
72640;BME280;60683;51.730;8.762;2024-03-25T11:14:36;99485.97;;;8.37;79.64
72640;BME280;60683;51.730;8.762;2024-03-25T11:17:22;99496.44;;;8.50;79.63
72640;BME280;60683;51.730;8.762;2024-03-25T11:20:12;99481.19;;;8.50;78.72
72640;BME280;60683;51.730;8.762;2024-03-25T11:22:57;99488.84;;;8.70;80.60
72640;BME280;60683;51.730;8.762;2024-03-25T11:25:41;99485.09;;;8.83;80.84
72640;BME280;60683;51.730;8.762;2024-03-25T11:28:29;99496.44;;;8.50;74.23
72640;BME280;60683;51.730;8.762;2024-03-25T11:31:14;99481.78;;;8.52;74.89
72640;BME280;60683;51.730;8.762;2024-03-25T11:34:05;99482.31;;;8.78;74.02
72640;BME280;60683;51.730;8.762;2024-03-25T11:36:50;99475.19;;;8.83;71.41
72640;BME280;60683;51.730;8.762;2024-03-25T11:39:34;99475.34;;;8.93;72.41
72640;BME280;60683;51.730;8.762;2024-03-25T11:42:18;99476.34;;;9.16;74.13
72640;BME280;60683;51.730;8.762;2024-03-25T11:45:04;99468.31;;;9.33;71.38
72640;BME280;60683;51.730;8.762;2024-03-25T11:47:49;99464.91;;;9.37;69.43
72640;BME280;60683;51.730;8.762;2024-03-25T11:50:35;99454.69;;;9.34;69.75
72640;BME280;60683;51.730;8.762;2024-03-25T11:53:20;99458.22;;;9.23;69.78
72640;BME280;60683;51.730;8.762;2024-03-25T11:56:05;99458.84;;;9.13;68.34
72640;BME280;60683;51.730;8.762;2024-03-25T11:58:49;99455.22;;;8.91;69.51
72640;BME280;60683;51.730;8.762;2024-03-25T12:01:35;99460.75;;;9.46;67.21
72640;BME280;60683;51.730;8.762;2024-03-25T12:04:20;99450.13;;;9.51;64.60
72640;BME280;60683;51.730;8.762;2024-03-25T12:07:06;99449.59;;;10.05;60.46
72640;BME280;60683;51.730;8.762;2024-03-25T12:09:50;99439.94;;;10.42;55.83
72640;BME280;60683;51.730;8.762;2024-03-25T12:12:58;99430.56;;;10.45;54.58
72640;BME280;60683;51.730;8.762;2024-03-25T12:15:43;99431.69;;;10.27;56.03
72640;BME280;60683;51.730;8.762;2024-03-25T12:18:28;99418.38;;;10.59;54.98
72640;BME280;60683;51.730;8.762;2024-03-25T12:21:13;99427.16;;;9.94;55.41
72640;BME280;60683;51.730;8.762;2024-03-25T12:23:59;99420.38;;;10.08;57.99
72640;BME280;60683;51.730;8.762;2024-03-25T12:26:43;99421.28;;;9.97;58.37
72640;BME280;60683;51.730;8.762;2024-03-25T12:29:28;99416.06;;;9.52;60.87
72640;BME280;60683;51.730;8.762;2024-03-25T12:32:13;99408.94;;;9.96;57.90
72640;BME280;60683;51.730;8.762;2024-03-25T12:34:58;99393.78;;;10.23;56.64
72640;BME280;60683;51.730;8.762;2024-03-25T12:37:43;99404.66;;;10.17;57.07
72640;BME280;60683;51.730;8.762;2024-03-25T12:40:30;99403.94;;;9.66;56.21
72640;BME280;60683;51.730;8.762;2024-03-25T12:43:14;99398.34;;;10.06;55.57
72640;BME280;60683;51.730;8.762;2024-03-25T12:45:59;99387.75;;;10.16;54.60
72640;BME280;60683;51.730;8.762;2024-03-25T12:48:44;99395.31;;;9.81;56.09
72640;BME280;60683;51.730;8.762;2024-03-25T12:51:28;99385.56;;;9.75;56.16
72640;BME280;60683;51.730;8.762;2024-03-25T12:54:12;99393.53;;;9.70;56.46
72640;BME280;60683;51.730;8.762;2024-03-25T12:56:59;99377.22;;;10.32;53.88
72640;BME280;60683;51.730;8.762;2024-03-25T12:59:43;99363.47;;;11.04;51.82
72640;BME280;60683;51.730;8.762;2024-03-25T13:02:28;99360.44;;;10.68;50.68
72640;BME280;60683;51.730;8.762;2024-03-25T13:05:12;99354.22;;;10.94;51.73
72640;BME280;60683;51.730;8.762;2024-03-25T13:07:57;99361.72;;;10.87;52.26
72640;BME280;60683;51.730;8.762;2024-03-25T13:10:41;99359.53;;;10.84;51.86
72640;BME280;60683;51.730;8.762;2024-03-25T13:13:27;99354.47;;;11.20;49.52
72640;BME280;60683;51.730;8.762;2024-03-25T13:16:12;99355.56;;;11.61;48.52
72640;BME280;60683;51.730;8.762;2024-03-25T13:18:57;99354.84;;;11.71;47.74
72640;BME280;60683;51.730;8.762;2024-03-25T13:21:42;99354.44;;;11.52;48.58
72640;BME280;60683;51.730;8.762;2024-03-25T13:24:27;99356.03;;;11.16;48.45
72640;BME280;60683;51.730;8.762;2024-03-25T13:27:11;99362.28;;;10.94;48.32
72640;BME280;60683;51.730;8.762;2024-03-25T13:29:57;99347.25;;;11.25;47.73
72640;BME280;60683;51.730;8.762;2024-03-25T13:32:41;99346.16;;;11.64;46.35
72640;BME280;60683;51.730;8.762;2024-03-25T13:35:26;99333.94;;;12.55;47.02
72640;BME280;60683;51.730;8.762;2024-03-25T13:38:11;99332.94;;;13.02;42.89
72640;BME280;60683;51.730;8.762;2024-03-25T13:40:56;99329.47;;;13.42;42.02
72640;BME280;60683;51.730;8.762;2024-03-25T13:43:42;99327.31;;;13.39;41.81
72640;BME280;60683;51.730;8.762;2024-03-25T13:46:29;99324.59;;;13.09;42.29
72640;BME280;60683;51.730;8.762;2024-03-25T13:49:13;99328.09;;;12.99;39.82
72640;BME280;60683;51.730;8.762;2024-03-25T13:51:58;99327.53;;;12.77;40.37
72640;BME280;60683;51.730;8.762;2024-03-25T13:54:43;99318.53;;;12.36;42.17
72640;BME280;60683;51.730;8.762;2024-03-25T13:57:28;99317.97;;;12.29;41.75
72640;BME280;60683;51.730;8.762;2024-03-25T14:00:13;99325.69;;;12.98;40.45
72640;BME280;60683;51.730;8.762;2024-03-25T14:02:59;99316.25;;;13.36;39.77
72640;BME280;60683;51.730;8.762;2024-03-25T14:05:44;99311.66;;;13.51;39.63
72640;BME280;60683;51.730;8.762;2024-03-25T14:08:29;99308.44;;;13.29;36.94
72640;BME280;60683;51.730;8.762;2024-03-25T14:11:13;99305.16;;;12.81;38.88
72640;BME280;60683;51.730;8.762;2024-03-25T14:13:57;99290.63;;;13.23;39.14
72640;BME280;60683;51.730;8.762;2024-03-25T14:16:42;99289.53;;;13.44;38.51
72640;BME280;60683;51.730;8.762;2024-03-25T14:19:28;99287.66;;;13.24;38.90
72640;BME280;60683;51.730;8.762;2024-03-25T14:22:12;99282.78;;;13.32;37.78
72640;BME280;60683;51.730;8.762;2024-03-25T14:24:57;99279.81;;;13.33;39.49
72640;BME280;60683;51.730;8.762;2024-03-25T14:27:41;99267.13;;;13.34;36.68
72640;BME280;60683;51.730;8.762;2024-03-25T14:30:26;99271.06;;;13.72;35.72
72640;BME280;60683;51.730;8.762;2024-03-25T14:33:10;99267.66;;;13.10;36.15
72640;BME280;60683;51.730;8.762;2024-03-25T14:35:56;99260.38;;;13.31;37.38
72640;BME280;60683;51.730;8.762;2024-03-25T14:38:40;99261.97;;;12.41;37.08